createdAt,value
2018-05-16T00:00:34.287Z,58.50
2018-05-16T00:03:02.053Z,59.24
2018-05-16T00:05:29.813Z,59.73
2018-05-16T00:07:57.527Z,60.24
2018-05-16T00:10:25.240Z,60.65
2018-05-16T00:12:52.999Z,61.38
2018-05-16T00:15:20.872Z,60.86
2018-05-16T00:17:48.596Z,60.80
2018-05-16T00:20:16.300Z,60.29
2018-05-16T00:22:43.958Z,60.09
2018-05-16T00:25:11.769Z,58.74
2018-05-16T00:27:39.586Z,59.20
2018-05-16T00:30:07.555Z,60.14
2018-05-16T00:32:35.329Z,60.06
2018-05-16T00:35:03.136Z,62.13
2018-05-16T00:37:30.903Z,63.32
2018-05-16T00:39:58.646Z,63.90
2018-05-16T00:42:26.384Z,63.99
2018-05-16T00:44:54.152Z,63.24
2018-05-16T00:47:21.872Z,63.48
2018-05-16T00:49:49.678Z,61.66
2018-05-16T00:52:17.406Z,64.29
2018-05-16T00:54:45.207Z,65.86
2018-05-16T00:57:12.972Z,67.16
2018-05-16T00:59:40.741Z,67.37
2018-05-16T01:02:08.606Z,67.67
2018-05-16T01:04:36.436Z,68.73
2018-05-16T01:07:04.135Z,66.76
2018-05-16T01:09:32.006Z,67.61
2018-05-16T01:11:59.866Z,68.53
2018-05-16T01:14:27.631Z,70.46
2018-05-16T01:16:55.517Z,72.03
2018-05-16T01:19:23.266Z,72.13
2018-05-16T01:21:51.129Z,73.41
2018-05-16T01:24:18.899Z,74.58
2018-05-16T01:26:46.760Z,76.91
2018-05-16T01:29:14.524Z,78.65
2018-05-16T01:31:42.282Z,78.58
2018-05-16T01:34:10.054Z,81.23
2018-05-16T01:36:37.922Z,80.98
2018-05-16T01:39:05.684Z,80.61
2018-05-16T01:41:33.654Z,83.39
2018-05-16T01:44:01.315Z,84.27
2018-05-16T01:46:29.083Z,85.57
2018-05-16T01:49:08.708Z,85.64
2018-05-16T01:51:36.553Z,84.56
2018-05-16T01:54:04.517Z,85.48
2018-05-16T01:56:32.216Z,83.00
2018-05-16T01:58:59.986Z,84.34
2018-05-16T02:01:27.752Z,84.89
2018-05-16T02:03:55.514Z,85.71
2018-05-16T02:06:23.225Z,85.48
2018-05-16T02:08:51.352Z,85.98
2018-05-16T02:11:19.116Z,86.00
2018-05-16T02:13:46.775Z,86.54
2018-05-16T02:16:14.542Z,86.86
2018-05-16T02:18:42.308Z,86.48
2018-05-16T02:21:10.024Z,86.84
2018-05-16T02:23:37.839Z,87.44
2018-05-16T02:26:05.540Z,87.51
2018-05-16T02:28:33.264Z,88.17
2018-05-16T02:31:01.748Z,88.31
2018-05-16T02:33:29.614Z,88.61
2018-05-16T02:35:57.480Z,89.11
2018-05-16T02:38:25.243Z,89.51
2018-05-16T02:40:53.155Z,90.18
2018-05-16T02:43:20.980Z,89.86
2018-05-16T02:45:48.846Z,90.33
2018-05-16T02:48:16.608Z,90.31
2018-05-16T02:50:44.479Z,89.96
2018-05-16T02:53:12.215Z,90.11
2018-05-16T02:55:40.004Z,89.84
2018-05-16T02:58:07.667Z,90.11
2018-05-16T03:00:35.637Z,89.97
2018-05-16T03:03:03.404Z,90.33
2018-05-16T03:05:31.275Z,90.29
2018-05-16T03:07:59.033Z,89.89
2018-05-16T03:10:26.900Z,89.71
2018-05-16T03:12:54.649Z,89.40
2018-05-16T03:15:22.429Z,89.40
2018-05-16T03:17:50.382Z,89.60
2018-05-16T03:20:18.165Z,90.17
2018-05-16T03:22:45.892Z,89.86
2018-05-16T03:25:13.692Z,89.86
2018-05-16T03:27:41.423Z,89.84
2018-05-16T03:30:09.432Z,89.50
2018-05-16T03:32:37.276Z,88.99
2018-05-16T03:35:05.120Z,89.11
2018-05-16T03:37:32.929Z,89.14
2018-05-16T03:40:00.804Z,88.66
2018-05-16T03:42:28.493Z,88.85
2018-05-16T03:44:56.313Z,88.78
2018-05-16T03:47:24.154Z,88.67
2018-05-16T03:49:51.959Z,88.44
2018-05-16T03:52:19.761Z,88.36
2018-05-16T03:54:47.581Z,88.25
2018-05-16T03:57:27.327Z,88.23
2018-05-16T04:00:07.160Z,87.95
2018-05-16T04:02:46.826Z,87.81
2018-05-16T04:05:14.630Z,87.87
2018-05-16T04:07:42.341Z,87.83
2018-05-16T04:10:10.215Z,87.51
2018-05-16T04:12:38.117Z,86.88
2018-05-16T04:15:05.947Z,85.86
2018-05-16T04:17:33.814Z,86.76
2018-05-16T04:20:01.477Z,86.69
2018-05-16T04:22:29.187Z,87.56
2018-05-16T04:24:57.006Z,88.00
2018-05-16T04:27:24.872Z,88.13
2018-05-16T04:29:52.586Z,87.57
2018-05-16T04:32:20.534Z,88.07
2018-05-16T04:34:48.268Z,87.66
2018-05-16T04:37:15.982Z,87.46
2018-05-16T04:39:43.750Z,88.11
2018-05-16T04:42:11.561Z,86.74
2018-05-16T04:44:39.220Z,85.48
2018-05-16T04:47:06.886Z,84.51
2018-05-16T04:49:34.549Z,84.84
2018-05-16T04:52:02.419Z,82.38
2018-05-16T04:54:30.180Z,84.35
2018-05-16T04:56:58.047Z,84.76
2018-05-16T04:59:25.811Z,84.15
2018-05-16T05:01:53.783Z,81.33
2018-05-16T05:04:21.544Z,82.43
2018-05-16T05:06:49.514Z,82.94
2018-05-16T05:09:17.347Z,84.17
2018-05-16T05:11:45.044Z,80.60
2018-05-16T05:14:12.909Z,80.97
2018-05-16T05:16:40.776Z,82.76
2018-05-16T05:19:08.444Z,82.84
2018-05-16T05:21:36.203Z,79.50
2018-05-16T05:24:03.868Z,78.95
2018-05-16T05:26:31.691Z,81.54
2018-05-16T05:28:59.408Z,82.00
2018-05-16T05:31:27.160Z,79.50
2018-05-16T05:33:54.921Z,79.70
2018-05-16T05:36:22.585Z,79.31
2018-05-16T05:38:50.401Z,77.52
2018-05-16T05:41:18.229Z,76.89
2018-05-16T05:43:45.963Z,76.79
2018-05-16T05:46:13.746Z,77.98
2018-05-16T05:48:41.630Z,76.17
2018-05-16T05:51:09.278Z,74.81
2018-05-16T05:53:37.099Z,72.40
2018-05-16T05:56:04.906Z,74.00
2018-05-16T05:58:32.672Z,73.43
2018-05-16T06:01:00.375Z,74.00
2018-05-16T06:03:28.204Z,75.12
2018-05-16T06:05:55.932Z,75.80
2018-05-16T06:08:23.711Z,74.36
2018-05-16T06:10:51.441Z,75.29
2018-05-16T06:13:19.099Z,75.07
2018-05-16T06:15:46.926Z,74.22
2018-05-16T06:18:14.788Z,73.98
2018-05-16T06:20:43.166Z,74.97
2018-05-16T06:23:10.930Z,75.93
2018-05-16T06:25:38.641Z,74.16
2018-05-16T06:28:06.504Z,75.66
2018-05-16T06:30:34.373Z,75.46
2018-05-16T06:33:02.188Z,74.91
2018-05-16T06:35:29.962Z,74.38
2018-05-16T06:37:57.724Z,73.87
2018-05-16T06:40:25.666Z,74.95
2018-05-16T06:42:53.554Z,73.19
2018-05-16T06:45:21.946Z,71.93
2018-05-16T06:47:49.711Z,69.11
2018-05-16T06:50:17.570Z,68.20
2018-05-16T06:52:45.216Z,64.92
2018-05-16T06:55:13.091Z,64.76
2018-05-16T06:57:40.864Z,64.22
2018-05-16T07:00:08.627Z,66.08
2018-05-16T07:02:36.318Z,66.73
2018-05-16T07:05:04.054Z,63.00
2018-05-16T07:07:31.711Z,56.70
2018-05-16T07:09:59.370Z,53.79
2018-05-16T07:12:27.107Z,50.10
2018-05-16T07:14:54.872Z,49.32
2018-05-16T07:17:22.773Z,47.27
2018-05-16T07:19:50.543Z,48.74
2018-05-16T07:22:18.164Z,48.38
2018-05-16T07:24:45.964Z,47.71
2018-05-16T07:27:13.627Z,49.86
2018-05-16T07:29:41.283Z,51.62
2018-05-16T07:32:08.951Z,54.62
2018-05-16T07:34:36.711Z,55.48
2018-05-16T07:37:04.586Z,56.21
2018-05-16T07:39:32.349Z,58.52
2018-05-16T07:42:00.219Z,60.27
2018-05-16T07:44:27.987Z,60.87
2018-05-16T07:46:55.841Z,60.75
2018-05-16T07:49:23.609Z,56.40
2018-05-16T07:51:51.271Z,53.92
2018-05-16T07:54:18.940Z,47.17
2018-05-16T07:56:46.757Z,47.50
2018-05-16T07:59:14.464Z,45.70
2018-05-16T08:01:42.193Z,44.46
2018-05-16T08:04:10.098Z,42.94
2018-05-16T08:06:37.860Z,47.39
2018-05-16T08:09:05.695Z,50.28
2018-05-16T08:11:33.415Z,52.44
2018-05-16T08:14:01.155Z,55.51
2018-05-16T08:16:28.918Z,53.19
2018-05-16T08:18:56.574Z,54.51
2018-05-16T08:21:24.237Z,53.35
2018-05-16T08:23:52.007Z,54.69
2018-05-16T08:26:19.872Z,52.92
2018-05-16T08:28:47.644Z,54.52
2018-05-16T08:31:15.458Z,52.78
2018-05-16T08:33:43.271Z,54.65
2018-05-16T08:36:11.139Z,53.80
2018-05-16T08:38:38.871Z,54.85
2018-05-16T08:41:06.665Z,55.42
2018-05-16T08:43:34.431Z,54.31
2018-05-16T08:46:02.206Z,52.55
2018-05-16T08:48:29.956Z,53.19
2018-05-16T08:50:57.723Z,52.84
2018-05-16T08:53:25.540Z,52.70
2018-05-16T08:55:53.210Z,54.06
2018-05-16T08:58:21.015Z,54.05
2018-05-16T09:00:48.785Z,54.87
2018-05-16T09:03:16.652Z,53.12
2018-05-16T09:05:44.413Z,54.92
2018-05-16T09:08:12.285Z,55.23
2018-05-16T09:10:39.915Z,54.01
2018-05-16T09:13:07.749Z,53.85
2018-05-16T09:15:35.574Z,52.09
2018-05-16T09:18:03.237Z,52.18
2018-05-16T09:20:31.115Z,53.26
2018-05-16T09:22:59.176Z,53.85
2018-05-16T09:25:26.836Z,53.89
2018-05-16T09:27:54.553Z,52.97
2018-05-16T09:30:22.172Z,53.02
2018-05-16T09:32:49.831Z,54.00
2018-05-16T09:35:17.685Z,52.39
2018-05-16T09:37:45.356Z,53.42
2018-05-16T09:40:13.074Z,52.12
2018-05-16T09:42:40.878Z,50.32
2018-05-16T09:45:08.751Z,49.72
2018-05-16T09:47:37.644Z,48.48
2018-05-16T09:50:06.701Z,48.49
2018-05-16T09:52:34.604Z,50.32
2018-05-16T09:55:02.537Z,46.52
2018-05-16T09:57:30.251Z,47.03
2018-05-16T09:59:58.096Z,47.74
2018-05-16T10:02:25.787Z,48.31
2018-05-16T10:04:53.634Z,47.07
2018-05-16T10:07:21.297Z,48.48
2018-05-16T10:09:49.227Z,44.58
2018-05-16T10:12:16.928Z,44.80
2018-05-16T10:14:44.770Z,45.70
2018-05-16T10:17:12.450Z,43.47
2018-05-16T10:19:40.219Z,41.24
2018-05-16T10:22:07.923Z,42.09
2018-05-16T10:24:35.747Z,41.53
2018-05-16T10:27:03.416Z,40.40
2018-05-16T10:29:31.277Z,41.95
2018-05-16T10:31:59.038Z,37.98
2018-05-16T10:34:26.921Z,39.35
2018-05-16T10:36:54.568Z,41.51
2018-05-16T10:39:22.392Z,41.02
2018-05-16T10:41:50.097Z,40.80
2018-05-16T10:44:17.926Z,41.11
2018-05-16T10:46:45.544Z,40.28
2018-05-16T10:49:13.396Z,40.44
2018-05-16T10:51:41.161Z,42.18
2018-05-16T10:54:09.141Z,40.19
2018-05-16T10:56:36.890Z,38.92
2018-05-16T10:59:04.959Z,40.07
2018-05-16T11:01:32.720Z,39.03
2018-05-16T11:04:00.793Z,37.47
2018-05-16T11:06:28.684Z,37.60
2018-05-16T11:08:57.343Z,37.19
2018-05-16T11:11:25.215Z,37.22
2018-05-16T11:13:53.202Z,37.42
2018-05-16T11:16:21.621Z,37.34
2018-05-16T11:18:49.535Z,37.85
2018-05-16T11:21:17.568Z,37.15
2018-05-16T11:23:46.132Z,38.85
2018-05-16T11:26:13.849Z,38.29
2018-05-16T11:28:41.556Z,38.33
2018-05-16T11:31:09.795Z,40.44
2018-05-16T11:33:37.657Z,37.86
2018-05-16T11:36:05.556Z,38.50
2018-05-16T11:38:33.282Z,37.31
2018-05-16T11:41:01.052Z,35.78
2018-05-16T11:43:28.711Z,34.88
2018-05-16T11:45:56.374Z,37.42
2018-05-16T11:48:24.142Z,38.38
2018-05-16T11:50:51.804Z,36.65
2018-05-16T11:53:19.569Z,37.99
2018-05-16T11:55:47.338Z,38.45
2018-05-16T11:58:15.403Z,33.48
2018-05-16T12:00:43.226Z,32.69
2018-05-16T12:03:11.038Z,35.06
2018-05-16T12:05:38.761Z,34.61
2018-05-16T12:08:06.564Z,34.56
2018-05-16T12:10:34.171Z,33.62
2018-05-16T12:13:01.828Z,32.44
2018-05-16T12:15:29.458Z,35.50
2018-05-16T12:17:57.110Z,35.08
2018-05-16T12:20:24.876Z,34.65
2018-05-16T12:22:52.744Z,34.25
2018-05-16T12:25:20.404Z,33.94
2018-05-16T12:27:48.169Z,33.56
2018-05-16T12:30:15.932Z,35.01
2018-05-16T12:32:43.869Z,36.77
2018-05-16T12:35:11.668Z,36.34
2018-05-16T12:37:39.435Z,37.84
2018-05-16T12:40:07.298Z,38.28
2018-05-16T12:42:35.236Z,38.01
2018-05-16T12:45:02.929Z,36.47
2018-05-16T12:47:30.748Z,37.22
2018-05-16T12:49:58.460Z,37.22
2018-05-16T12:52:26.222Z,36.76
2018-05-16T12:54:53.995Z,37.28
2018-05-16T12:57:21.747Z,36.84
2018-05-16T12:59:49.458Z,34.89
2018-05-16T13:02:17.179Z,35.13
2018-05-16T13:04:44.835Z,36.69
2018-05-16T13:07:12.658Z,37.42
2018-05-16T13:09:40.475Z,38.26
2018-05-16T13:12:08.126Z,35.33
2018-05-16T13:14:35.858Z,36.56
2018-05-16T13:17:03.664Z,35.78
2018-05-16T13:19:31.427Z,36.84
2018-05-16T13:21:59.091Z,36.97
2018-05-16T13:24:26.959Z,37.38
2018-05-16T13:26:54.740Z,35.87
2018-05-16T13:29:22.491Z,37.30
2018-05-16T13:31:50.306Z,36.99
2018-05-16T13:34:18.222Z,38.47
2018-05-16T13:36:45.938Z,37.81
2018-05-16T13:39:13.748Z,38.73
2018-05-16T13:41:41.513Z,42.56
2018-05-16T13:44:09.177Z,46.24
2018-05-16T13:46:36.940Z,48.62
2018-05-16T13:49:05.011Z,50.40
2018-05-16T13:51:32.715Z,49.21
2018-05-16T13:54:00.433Z,52.19
2018-05-16T13:56:28.144Z,51.15
2018-05-16T13:58:55.964Z,50.09
2018-05-16T14:01:23.677Z,47.93
2018-05-16T14:03:51.496Z,47.40
2018-05-16T14:06:19.363Z,46.00
2018-05-16T14:08:47.131Z,45.74
2018-05-16T14:11:14.997Z,45.80
2018-05-16T14:13:42.839Z,47.32
2018-05-16T14:16:10.524Z,48.69
2018-05-16T14:18:38.288Z,53.62
2018-05-16T14:21:06.067Z,52.43
2018-05-16T14:23:33.937Z,58.57
2018-05-16T14:26:01.786Z,58.18
2018-05-16T14:28:29.448Z,60.30
2018-05-16T14:30:57.230Z,61.33
2018-05-16T14:33:25.721Z,62.51
2018-05-16T14:35:53.905Z,68.37
2018-05-16T14:38:21.742Z,64.73
2018-05-16T14:40:49.476Z,69.32
2018-05-16T14:43:17.377Z,69.08
2018-05-16T14:45:45.233Z,68.10
2018-05-16T14:48:13.101Z,66.33
2018-05-16T14:50:40.867Z,64.43
2018-05-16T14:53:08.637Z,63.84
2018-05-16T14:55:36.459Z,62.31
2018-05-16T14:58:04.366Z,61.11
2018-05-16T15:00:32.167Z,61.24
2018-05-16T15:02:59.995Z,59.46
2018-05-16T15:05:27.822Z,61.74
2018-05-16T15:07:55.626Z,60.30
2018-05-16T15:10:23.355Z,59.96
2018-05-16T15:12:51.264Z,58.68
2018-05-16T15:15:19.025Z,58.30
2018-05-16T15:17:46.891Z,60.04
2018-05-16T15:20:14.595Z,58.53
2018-05-16T15:22:42.245Z,57.48
2018-05-16T15:25:09.980Z,57.43
2018-05-16T15:27:37.847Z,56.57
2018-05-16T15:30:05.918Z,57.21
2018-05-16T15:32:33.567Z,56.13
2018-05-16T15:35:01.205Z,54.88
2018-05-16T15:37:28.905Z,55.67
2018-05-16T15:39:56.669Z,54.37
2018-05-16T15:42:24.434Z,53.93
2018-05-16T15:44:52.140Z,52.70
2018-05-16T15:47:20.065Z,51.18
2018-05-16T15:49:47.932Z,52.64
2018-05-16T15:52:15.694Z,54.11
2018-05-16T15:54:43.463Z,52.97
2018-05-16T15:57:11.329Z,49.51
2018-05-16T15:59:39.052Z,50.97
2018-05-16T16:02:07.033Z,53.69
2018-05-16T16:04:34.935Z,56.57
2018-05-16T16:07:03.001Z,55.25
2018-05-16T16:09:30.764Z,52.42
2018-05-16T16:11:58.631Z,51.91
2018-05-16T16:14:26.501Z,55.61
2018-05-16T16:16:54.163Z,55.25
2018-05-16T16:19:21.923Z,54.46
2018-05-16T16:21:49.815Z,53.37
2018-05-16T16:24:17.656Z,52.03
2018-05-16T16:26:45.374Z,55.75
2018-05-16T16:29:13.186Z,53.04
2018-05-16T16:31:40.879Z,49.97
2018-05-16T16:34:08.716Z,50.88
2018-05-16T16:36:36.440Z,49.24
2018-05-16T16:39:04.414Z,49.12
2018-05-16T16:41:32.215Z,49.69
2018-05-16T16:44:00.086Z,48.33
2018-05-16T16:46:27.808Z,47.73
2018-05-16T16:48:55.814Z,47.19
2018-05-16T16:51:23.784Z,47.86
2018-05-16T16:53:51.651Z,48.46
2018-05-16T16:56:19.381Z,46.58
2018-05-16T16:58:47.181Z,47.02
2018-05-16T17:01:14.946Z,46.63
2018-05-16T17:03:42.752Z,48.11
2018-05-16T17:06:10.475Z,49.02
2018-05-16T17:08:38.237Z,48.42
2018-05-16T17:11:05.904Z,48.62
2018-05-16T17:13:33.766Z,49.33
2018-05-16T17:16:02.749Z,49.49
2018-05-16T17:18:30.476Z,49.42
2018-05-16T17:20:58.295Z,50.33
2018-05-16T17:23:26.058Z,51.04
2018-05-16T17:25:54.966Z,51.47
2018-05-16T17:28:22.722Z,50.82
2018-05-16T17:30:50.579Z,51.49
2018-05-16T17:33:18.341Z,51.46
2018-05-16T17:35:46.217Z,50.68
2018-05-16T17:38:13.869Z,51.83
2018-05-16T17:40:41.706Z,51.28
2018-05-16T17:43:09.396Z,51.54
2018-05-16T17:45:37.266Z,51.97
2018-05-16T17:48:05.036Z,52.30
2018-05-16T17:50:32.875Z,51.54
2018-05-16T17:53:00.764Z,51.45
2018-05-16T17:55:28.482Z,51.27
2018-05-16T17:57:56.199Z,51.58
2018-05-16T18:00:23.992Z,52.26
2018-05-16T18:02:51.822Z,52.38
2018-05-16T18:05:19.546Z,52.83
2018-05-16T18:07:47.352Z,53.14
2018-05-16T18:10:15.320Z,53.52
2018-05-16T18:12:43.088Z,53.94
2018-05-16T18:15:22.847Z,54.67
2018-05-16T18:17:50.499Z,54.85
2018-05-16T18:20:18.361Z,54.75
2018-05-16T18:22:46.126Z,54.95
2018-05-16T18:25:13.835Z,55.00
2018-05-16T18:27:41.494Z,55.04
2018-05-16T18:30:09.212Z,55.23
2018-05-16T18:32:36.879Z,56.20
2018-05-16T18:35:04.539Z,56.58
2018-05-16T18:37:32.186Z,56.23
2018-05-16T18:39:59.976Z,55.99
2018-05-16T18:42:27.865Z,55.84
2018-05-16T18:44:55.600Z,56.55
2018-05-16T18:47:23.465Z,57.18
2018-05-16T18:49:51.184Z,56.89
2018-05-16T18:52:18.844Z,56.95
2018-05-16T18:54:46.670Z,57.05
2018-05-16T18:57:14.479Z,57.63
2018-05-16T18:59:42.246Z,57.07
2018-05-16T19:02:09.898Z,57.47
2018-05-16T19:04:37.518Z,57.32
2018-05-16T19:07:05.263Z,56.83
2018-05-16T19:09:32.926Z,57.42
2018-05-16T19:12:00.586Z,57.61
2018-05-16T19:14:28.368Z,58.30
2018-05-16T19:16:56.228Z,58.07
2018-05-16T19:19:24.094Z,57.79
2018-05-16T19:21:51.753Z,57.67
2018-05-16T19:24:19.424Z,58.39
2018-05-16T19:26:47.075Z,58.31
2018-05-16T19:29:14.896Z,58.21
2018-05-16T19:31:42.711Z,57.54
2018-05-16T19:34:10.433Z,58.61
2018-05-16T19:36:38.241Z,58.07
2018-05-16T19:39:06.039Z,57.94
2018-05-16T19:41:33.769Z,56.95
2018-05-16T19:44:01.527Z,57.07
2018-05-16T19:46:29.406Z,57.46
2018-05-16T19:48:57.453Z,57.54
2018-05-16T19:51:25.239Z,57.66
2018-05-16T19:53:53.104Z,57.79
2018-05-16T19:56:20.795Z,58.11
2018-05-16T19:58:48.635Z,58.11
2018-05-16T20:01:16.396Z,58.59
2018-05-16T20:03:44.266Z,58.85
2018-05-16T20:06:11.984Z,59.33
2018-05-16T20:08:39.794Z,59.84
2018-05-16T20:11:07.659Z,59.98
2018-05-16T20:13:35.526Z,60.72
2018-05-16T20:16:03.266Z,60.83
2018-05-16T20:18:31.011Z,61.35
2018-05-16T20:20:58.819Z,61.47
2018-05-16T20:23:26.482Z,61.80
2018-05-16T20:25:54.247Z,62.19
2018-05-16T20:28:22.012Z,62.10
2018-05-16T20:30:49.981Z,62.69
2018-05-16T20:33:17.742Z,62.71
2018-05-16T20:35:45.613Z,63.02
2018-05-16T20:38:13.377Z,63.10
2018-05-16T20:40:41.244Z,62.89
2018-05-16T20:43:08.910Z,63.28
2018-05-16T20:45:36.671Z,62.96
2018-05-16T20:48:04.537Z,63.14
2018-05-16T20:50:32.404Z,63.17
2018-05-16T20:53:00.067Z,63.31
2018-05-16T20:55:27.932Z,63.37
2018-05-16T20:57:55.653Z,63.54
2018-05-16T21:00:23.463Z,63.35
2018-05-16T21:02:51.331Z,63.37
2018-05-16T21:05:19.277Z,63.44
2018-05-16T21:07:47.077Z,63.20
2018-05-16T21:10:14.826Z,62.93
2018-05-16T21:12:42.594Z,63.01
2018-05-16T21:15:10.460Z,63.08
2018-05-16T21:17:38.121Z,62.68
2018-05-16T21:20:06.189Z,63.05
2018-05-16T21:22:33.958Z,63.11
2018-05-16T21:25:01.617Z,62.85
2018-05-16T21:27:29.299Z,63.14
2018-05-16T21:29:56.935Z,62.88
2018-05-16T21:32:24.802Z,62.88
2018-05-16T21:34:52.592Z,62.70
2018-05-16T21:37:20.442Z,62.58
2018-05-16T21:39:48.313Z,62.63
2018-05-16T21:42:16.132Z,62.28
2018-05-16T21:44:44.273Z,62.63
2018-05-16T21:47:12.832Z,62.49
2018-05-16T21:49:40.487Z,62.33
2018-05-16T21:52:08.258Z,62.37
2018-05-16T21:54:36.083Z,62.33
2018-05-16T21:57:04.716Z,62.35
2018-05-16T21:59:32.419Z,62.21
2018-05-16T22:02:00.134Z,62.14
2018-05-16T22:04:28.104Z,62.26
2018-05-16T22:06:55.864Z,62.19
2018-05-16T22:09:23.685Z,62.14
2018-05-16T22:11:51.705Z,62.35
2018-05-16T22:14:19.469Z,62.69
2018-05-16T22:16:47.229Z,62.91
2018-05-16T22:19:14.952Z,64.77
2018-05-16T22:21:42.766Z,65.99
2018-05-16T22:24:10.485Z,67.43
2018-05-16T22:26:38.191Z,67.43
2018-05-16T22:29:05.895Z,68.05
2018-05-16T22:31:39.349Z,69.31
2018-05-16T22:34:12.640Z,69.26
2018-05-16T22:36:46.011Z,70.02
2018-05-16T22:39:19.227Z,70.11
2018-05-16T22:41:52.529Z,69.87
2018-05-16T22:44:20.292Z,70.93
2018-05-16T22:46:48.110Z,72.85
2018-05-16T22:49:15.924Z,72.30
2018-05-16T22:51:43.793Z,74.08
2018-05-16T22:54:11.506Z,74.04
2018-05-16T22:56:39.319Z,72.87
2018-05-16T22:59:07.144Z,71.84
2018-05-16T23:01:34.813Z,72.98
2018-05-16T23:04:02.578Z,73.57
2018-05-16T23:06:30.347Z,72.38
2018-05-16T23:08:58.085Z,72.88
2018-05-16T23:11:25.805Z,73.15
2018-05-16T23:13:53.619Z,73.23
2018-05-16T23:16:21.440Z,73.77
2018-05-16T23:18:49.409Z,73.64
2018-05-16T23:21:17.272Z,73.49
2018-05-16T23:23:45.038Z,73.07
2018-05-16T23:26:12.803Z,72.15
2018-05-16T23:28:40.669Z,72.36
2018-05-16T23:31:08.382Z,72.46
2018-05-16T23:33:36.301Z,72.63
2018-05-16T23:36:04.170Z,72.58
2018-05-16T23:38:32.041Z,72.87
2018-05-16T23:40:59.876Z,72.55
2018-05-16T23:43:27.668Z,72.80
2018-05-16T23:45:55.432Z,73.13
2018-05-16T23:48:23.153Z,72.64
2018-05-16T23:50:50.851Z,72.91
2018-05-16T23:53:18.685Z,72.85
2018-05-16T23:55:46.452Z,72.54
2018-05-16T23:58:14.250Z,72.63
